FW1662 Weather Reports


Display with metric or nautical units.
time (UTC)temp
F
wind
direction
speed
MPH
gust
MPH
rain 1hr
in
rain 24hr
in
rain mn
in
humidity
%
barometer
mb
20190421010007 58 160 5.0 15.0 0.00 0.95 0.95 80 1011.4
20190421004502 57 154 7.0 15.0 0.00 0.95 0.95 81 1011.4
20190421003200 57 195 5.0 12.0 0.00 0.95 0.95 82 1011.4
20190421001804 57 157 5.0 15.0 0.00 0.95 0.95 77 1011.6
20190421000119 57 171 3.0 12.0 0.00 0.95 0.95 76 1011.4
20190420234631 58 172 6.0 11.0 0.00 0.95 0.95 76 1011.3
20190420233107 58 225 5.0 12.0 0.00 0.95 0.95 79 1011.2
20190420231627 58 165 7.0 14.0 0.00 0.95 0.95 81 1011.0
20190420230123 59 184 5.0 15.0 0.00 0.95 0.95 80 1010.6
20190420224627 59 186 4.0 11.0 0.00 0.95 0.95 78 1010.2
20190420223116 60 194 6.0 17.0 0.00 0.95 0.95 78 1010.4
20190420221601 60 172 7.0 14.0 0.00 0.95 0.95 78 1010.3
20190420220107 60 151 5.0 15.0 0.00 0.95 0.95 78 1010.1
20190420214630 60 153 6.0 14.0 0.00 0.95 0.95 81 1010.3
20190420213057 61 117 9.0 17.0 0.00 0.95 0.95 82 1009.7
20190420211549 61 155 6.0 14.0 0.00 0.95 0.95 82 1009.7
20190420210059 61 110 5.0 15.0 0.00 0.95 0.95 85 1009.5
20190420204531 61 179 5.0 18.0 0.00 0.95 0.95 86 1009.6
20190420203030 61 149 5.0 23.0 0.00 0.95 0.95 87 1009.4
20190420201537 61 198 3.0 14.0 0.00 0.95 0.95 87 1009.2
20190420200113 61 253 5.0 15.0 0.00 0.95 0.95 88 1008.9
20190420194529 61 207 6.0 19.0 0.00 0.95 0.95 88 1008.9
20190420193055 62 152 8.0 20.0 0.00 0.95 0.95 87 1008.9
20190420191552 62 214 6.0 16.0 0.00 0.95 0.95 87 1009.1
20190420190035 62 149 7.0 22.0 0.00 0.95 0.95 87 1008.9
20190420184521 63 203 9.0 23.0 0.00 0.95 0.95 87 1009.1
20190420183017 63 224 8.0 24.0 0.00 0.95 0.95 90 1009.0
20190420181538 64 160 8.0 26.0 0.00 0.95 0.95 88 1009.2
20190420180020 64 215 7.0 19.0 0.00 0.95 0.95 89 1008.5
20190420174521 64 153 8.0 16.0 0.00 0.95 0.95 89 1008.3
20190420173022 65 114 6.0 22.0 0.00 0.95 0.95 89 1009.0
20190420171523 64 163 10.0 21.0 0.00 0.95 0.95 89 1008.7
20190420170033 63 262 8.0 21.0 0.00 0.95 0.95 90 1008.9
20190420164519 63 164 7.0 20.0 0.00 0.95 0.95 91 1008.9
20190420163022 62 217 7.0 16.0 0.00 0.95 0.95 92 1009.0
20190420161528 62 178 8.0 14.0 0.00 0.95 0.95 91 1008.7
20190420160026 62 174 5.0 11.0 0.00 0.95 0.95 91 1008.7
20190420154513 62 179 5.0 13.0 0.05 0.95 0.95 92 1008.9
20190420153010 62 72 6.0 18.0 0.20 0.95 0.95 93 1008.9
20190420151508 62 155 8.0 25.0 0.25 0.95 0.95 92 1009.1
20190420150013 63 147 12.0 28.0 0.25 0.95 0.95 92 1009.1
20190420144510 64 161 7.0 17.0 0.20 0.90 0.90 93 1009.1
20190420143011 64 158 8.0 23.0 0.04 0.74 0.74 93 1008.8
20190420141502 64 175 8.0 28.0 0.00 0.70 0.70 92 1008.7
20190420140002 64 212 10.0 33.0 0.00 0.70 0.70 92 1008.5
20190420134742 65 161 10.0 21.0 0.00 0.70 0.70 92 1008.4
20190420133211 65 146 10.0 22.0 0.00 0.70 0.70 93 1008.2
20190420131704 65 167 8.0 20.0 0.01 0.70 0.70 93 1008.1
20190420130136 65 160 11.0 27.0 0.03 0.70 0.70 93 1008.1
20190420124721 65 130 10.0 31.0 0.16 0.70 0.70 94 1008.1
20190420123209 64 193 8.0 20.0 0.36 0.70 0.70 94 1008.2
20190420121710 63 188 8.0 20.0 0.41 0.69 0.69 95 1008.1
20190420120206 61 165 4.0 10.0 0.43 0.67 0.67 94 1008.0
20190420114650 61 89 4.0 11.0 0.37 0.54 0.54 94 1008.1
20190420113153 61 188 5.0 10.0 0.18 0.34 0.34 94 1007.8
20190420111714 61 170 6.0 15.0 0.12 0.28 0.28 94 1007.9
20190420110226 61 159 7.0 18.0 0.09 0.24 0.24 94 1008.2
20190420104620 61 148 5.0 14.0 0.03 0.17 0.17 94 1008.2
20190420103135 60 174 7.0 16.0 0.06 0.16 0.16 94 1007.6
20190420101739 60 156 5.0 14.0 0.06 0.16 0.16 94 1007.3
20190420100136 60 148 5.0 18.0 0.05 0.15 0.15 94 1007.4
20190420094615 60 184 7.0 15.0 0.04 0.14 0.14 94 1007.5
20190420093125 61 159 7.0 16.0 0.01 0.10 0.10 93 1007.7
20190420091610 61 172 6.0 22.0 0.01 0.10 0.10 93 1007.5
20190420090054 62 179 9.0 20.0 0.01 0.10 0.10 93 1007.6
20190420084605 63 141 8.0 15.0 0.02 0.10 0.10 94 1007.6
20190420083118 63 225 6.0 17.0 0.01 0.09 0.09 94 1007.7
20190420081632 62 196 4.0 21.0 0.01 0.09 0.09 94 1007.5
20190420080115 61 162 6.0 13.0 0.02 0.09 0.09 94 1007.5
20190420074609 61 184 6.0 12.0 0.03 0.08 0.08 94 1007.6
20190420073137 60 172 5.0 10.0 0.04 0.08 0.08 94 1007.5
20190420071624 59 152 5.0 16.0 0.05 0.08 0.08 93 1007.3
20190420070133 60 164 4.0 11.0 0.04 0.07 0.07 93 1007.6
20190420064544 60 186 7.0 13.0 0.03 0.05 0.05 92 1007.7
20190420063057 62 151 5.0 12.0 0.04 0.04 0.04 92 1007.7
20190420061616 62 148 3.0 12.0 0.03 0.03 0.03 92 1007.2
20190420060036 62 202 4.0 15.0 0.03 0.03 0.03 91 1007.6
20190420054543 62 150 8.0 22.0 0.01 0.01 0.01 90 1008.3
20190420053036 64 213 12.0 44.0 0.00 0.00 0.00 89 1007.6
20190420051546 65 259 11.0 25.0 0.00 0.00 0.00 90 1006.9
20190420050023 65 199 12.0 22.0 0.00 0.00 0.00 90 1007.1
20190420044541 65 132 9.0 35.0 0.00 0.00 0.00 90 1007.4
20190420043021 65 172 11.0 26.0 0.00 0.00 0.00 90 1007.8
20190420041511 65 198 11.0 26.0 0.00 0.00 0.00 89 1007.5
20190420040008 65 165 8.0 26.0 0.00 0.00 0.00 90 1007.8
20190420034515 65 184 11.0 24.0 0.00 0.00 0.00 90 1008.0
20190420033022 64 107 8.0 32.0 0.00 0.00 0.00 90 1007.9
20190420031505 65 165 9.0 30.0 0.00 0.00 0.00 89 1007.9
20190420030004 65 173 8.0 24.0 0.00 0.00 0.00 90 1008.0
20190420024502 65 152 12.0 23.0 0.00 0.00 0.00 90 1008.0
20190420023237 63 184 12.0 23.0 0.00 0.00 0.00 91 1008.1
20190420021713 63 173 7.0 20.0 0.00 0.00 0.00 91 1008.3
20190420020156 62 144 9.0 20.0 0.00 0.00 0.00 91 1008.5
20190420014734 62 162 7.0 24.0 0.00 0.00 0.00 90 1008.6
20190420013147 63 175 11.0 28.0 0.00 0.00 0.00 89 1008.9
20190420011803 62 200 8.0 23.0 0.00 0.00 0.00 90 1009.1